Time;durP1;ratioP1;P1;durP2;ratioP2;P2;SDS_P1;SDS_P2;PMS_P1;PMS_P2;Temp;Humidity;BMP_temperature;BMP_pressure;BME280_temperature;BME280_humidity;BME280_pressure;Samples;Min_cycle;Max_cycle;Signal;HPM_P1;HPM_P2
2024/03/11 00:00:37;;;;;;;4.50;4.10;;;5.00;99.90;;;;;;5045189;28;20414;-60
2024/03/11 00:03:04;;;;;;;4.47;4.07;;;5.00;99.90;;;;;;5049441;28;20422;-60
2024/03/11 00:05:30;;;;;;;7.23;4.30;;;4.90;99.90;;;;;;5043321;28;20453;-60
2024/03/11 00:07:57;;;;;;;5.70;4.87;;;4.90;99.90;;;;;;5039992;28;20526;-60
2024/03/11 00:10:23;;;;;;;4.80;4.30;;;4.90;99.90;;;;;;5021446;28;20422;-60
2024/03/11 00:12:51;;;;;;;6.40;4.57;;;4.90;99.90;;;;;;5046797;28;21290;-60
2024/03/11 00:15:20;;;;;;;5.40;4.90;;;4.90;99.90;;;;;;5040728;28;20799;-60
2024/03/11 00:17:50;;;;;;;4.93;4.33;;;4.80;99.90;;;;;;5040934;28;20440;-59
2024/03/11 00:20:16;;;;;;;9.23;4.50;;;4.80;99.90;;;;;;5041662;28;20472;-60
2024/03/11 00:22:42;;;;;;;5.60;4.37;;;4.80;99.90;;;;;;5043033;28;20418;-61
2024/03/11 00:25:09;;;;;;;4.90;4.40;;;4.80;99.90;;;;;;5047006;28;20457;-60
2024/03/11 00:27:38;;;;;;;5.30;4.70;;;4.70;99.90;;;;;;5043175;28;20689;-61
2024/03/11 00:30:11;;;;;;;5.30;4.27;;;4.70;99.90;;;;;;5043598;28;20441;-60
2024/03/11 00:32:47;;;;;;;5.00;4.33;;;4.70;99.90;;;;;;5044157;28;20422;-61
2024/03/11 00:35:14;;;;;;;6.37;4.57;;;4.70;99.90;;;;;;5047725;28;20520;-61
2024/03/11 00:37:40;;;;;;;5.80;4.90;;;4.60;99.90;;;;;;5045120;28;20429;-60
2024/03/11 00:40:07;;;;;;;4.90;4.40;;;4.60;99.90;;;;;;5038421;28;20445;-59
2024/03/11 00:42:38;;;;;;;6.13;4.77;;;4.60;99.90;;;;;;5044862;28;20437;-60
2024/03/11 00:45:10;;;;;;;5.87;4.53;;;4.60;99.90;;;;;;5043769;28;20452;-60
2024/03/11 00:47:36;;;;;;;5.60;4.10;;;4.60;99.90;;;;;;5044395;28;20437;-61
2024/03/11 00:50:06;;;;;;;6.50;4.63;;;4.60;99.90;;;;;;5043794;28;20903;-61
2024/03/11 00:52:35;;;;;;;5.20;4.70;;;4.50;99.90;;;;;;5043378;28;21011;-61
2024/03/11 00:55:02;;;;;;;5.30;4.57;;;4.60;99.90;;;;;;5044430;28;20448;-60
2024/03/11 00:57:29;;;;;;;5.30;4.80;;;4.50;99.90;;;;;;5046887;28;20439;-61
2024/03/11 00:59:56;;;;;;;4.80;4.10;;;4.50;99.90;;;;;;5044048;28;20533;-60
2024/03/11 01:02:24;;;;;;;11.00;5.30;;;4.50;99.90;;;;;;5044041;28;20504;-60
2024/03/11 01:04:53;;;;;;;6.80;5.30;;;4.50;99.90;;;;;;5027078;28;20465;-61
2024/03/11 01:07:20;;;;;;;5.73;4.73;;;4.50;99.90;;;;;;5038646;28;20423;-60
2024/03/11 01:09:46;;;;;;;5.30;4.80;;;4.50;99.90;;;;;;5026103;28;20449;-61
2024/03/11 01:12:12;;;;;;;5.37;4.63;;;4.50;99.90;;;;;;5043489;28;20495;-60
2024/03/11 01:14:37;;;;;;;6.30;5.17;;;4.50;99.90;;;;;;5043526;28;20430;-60
2024/03/11 01:17:03;;;;;;;6.10;5.07;;;4.50;99.90;;;;;;5045405;28;20179;-60
2024/03/11 01:19:29;;;;;;;7.40;5.23;;;4.40;99.90;;;;;;5029408;28;20210;-60
2024/03/11 01:21:57;;;;;;;6.13;5.03;;;4.40;99.90;;;;;;5024175;28;20418;-60
2024/03/11 01:24:24;;;;;;;8.10;4.73;;;4.40;99.90;;;;;;5032405;28;20566;-61
2024/03/11 01:26:49;;;;;;;5.03;4.40;;;4.40;99.90;;;;;;5040806;28;20430;-60
2024/03/11 01:29:15;;;;;;;8.67;5.53;;;4.40;99.90;;;;;;5044206;28;20540;-61
2024/03/11 01:31:43;;;;;;;5.80;5.03;;;4.40;99.90;;;;;;5045866;28;20574;-60
2024/03/11 01:34:09;;;;;;;8.03;5.20;;;4.40;99.90;;;;;;5026312;28;20591;-61
2024/03/11 01:36:36;;;;;;;7.53;4.90;;;4.40;99.90;;;;;;5046891;28;20418;-62
2024/03/11 01:39:08;;;;;;;6.03;5.37;;;4.40;99.90;;;;;;5042804;28;20429;-60
2024/03/11 01:41:38;;;;;;;7.80;4.87;;;4.40;99.90;;;;;;5044838;28;20422;-60
2024/03/11 01:44:07;;;;;;;7.37;5.37;;;4.40;99.90;;;;;;5042517;28;20463;-60
2024/03/11 01:46:33;;;;;;;5.93;5.00;;;4.40;99.90;;;;;;5043164;28;20481;-60
2024/03/11 01:49:02;;;;;;;5.70;5.10;;;4.40;99.90;;;;;;5041879;28;20805;-60
2024/03/11 01:51:28;;;;;;;7.00;5.40;;;4.40;99.90;;;;;;5042301;28;20798;-60
2024/03/11 01:53:54;;;;;;;6.40;5.70;;;4.30;99.90;;;;;;5046053;28;20434;-60
2024/03/11 01:56:22;;;;;;;7.00;5.83;;;4.30;99.90;;;;;;5035844;28;20174;-60
2024/03/11 01:58:49;;;;;;;11.37;5.27;;;4.30;99.90;;;;;;5024582;28;21002;-60
2024/03/11 02:01:17;;;;;;;8.10;5.60;;;4.30;99.90;;;;;;5043480;28;20499;-61
2024/03/11 02:03:43;;;;;;;7.87;5.57;;;4.30;99.90;;;;;;5024028;28;21121;-60
2024/03/11 02:06:10;;;;;;;6.70;5.17;;;4.30;99.90;;;;;;5043008;28;21094;-59
2024/03/11 02:08:37;;;;;;;5.90;5.30;;;4.30;99.90;;;;;;5045186;28;20496;-62
2024/03/11 02:11:03;;;;;;;8.63;5.90;;;4.20;99.90;;;;;;5044565;28;20803;-60
2024/03/11 02:13:30;;;;;;;7.67;5.87;;;4.20;99.90;;;;;;5039886;28;20978;-60
2024/03/11 02:15:57;;;;;;;6.77;5.47;;;4.20;99.90;;;;;;5045270;28;22637;-60
2024/03/11 02:18:23;;;;;;;7.80;6.13;;;4.20;99.90;;;;;;5041710;28;20426;-60
2024/03/11 02:20:48;;;;;;;8.17;5.60;;;4.20;99.90;;;;;;5041947;28;20417;-60
2024/03/11 02:23:14;;;;;;;8.40;6.57;;;4.10;99.90;;;;;;5039465;28;20428;-60
2024/03/11 02:25:39;;;;;;;7.77;5.83;;;4.10;99.90;;;;;;5043790;28;20314;-60
2024/03/11 02:28:05;;;;;;;8.43;6.03;;;4.00;99.90;;;;;;5040140;28;20237;-60
2024/03/11 02:30:32;;;;;;;9.90;5.90;;;4.00;99.90;;;;;;5046375;28;20175;-59
2024/03/11 02:32:58;;;;;;;7.90;6.17;;;4.00;99.90;;;;;;5040141;28;20616;-60
2024/03/11 02:35:24;;;;;;;12.00;6.70;;;4.00;99.90;;;;;;5045783;28;20907;-60
2024/03/11 02:37:50;;;;;;;7.90;6.47;;;4.00;99.90;;;;;;5039255;28;20456;-60
2024/03/11 02:40:19;;;;;;;6.73;6.00;;;3.90;99.90;;;;;;5043612;28;20203;-60
2024/03/11 02:42:45;;;;;;;7.20;5.80;;;3.90;99.90;;;;;;5041560;28;20266;-60
2024/03/11 02:45:16;;;;;;;8.20;6.60;;;3.90;99.90;;;;;;5028509;28;20826;-60
2024/03/11 02:47:41;;;;;;;8.10;5.33;;;3.90;99.90;;;;;;5040366;28;20755;-60
2024/03/11 02:50:08;;;;;;;7.43;5.47;;;3.90;99.90;;;;;;5042716;28;21025;-60
2024/03/11 02:52:34;;;;;;;6.83;5.80;;;3.90;99.90;;;;;;5044787;28;20586;-60
2024/03/11 02:55:02;;;;;;;8.33;6.20;;;3.90;99.90;;;;;;5045318;28;20475;-61
2024/03/11 02:57:28;;;;;;;8.30;6.70;;;3.90;99.90;;;;;;5037880;28;20472;-61
2024/03/11 02:59:54;;;;;;;8.33;6.40;;;3.90;99.90;;;;;;5046775;28;20440;-60
2024/03/11 03:02:20;;;;;;;8.70;6.63;;;3.90;99.90;;;;;;5043800;28;20422;-60
2024/03/11 03:04:46;;;;;;;8.17;6.50;;;3.90;99.90;;;;;;5045180;28;20194;-60
2024/03/11 03:07:14;;;;;;;8.20;6.00;;;3.90;99.90;;;;;;5038520;28;20423;-60
2024/03/11 03:09:40;;;;;;;7.20;5.70;;;3.90;99.90;;;;;;5039156;28;20214;-60
2024/03/11 03:12:09;;;;;;;8.17;6.20;;;3.90;99.90;;;;;;5042542;28;20422;-60
2024/03/11 03:14:37;;;;;;;9.23;6.60;;;3.80;99.90;;;;;;5042394;28;20178;-60
2024/03/11 03:17:10;;;;;;;7.87;6.17;;;3.80;99.90;;;;;;5022723;28;20413;-60
2024/03/11 03:19:35;;;;;;;9.27;7.17;;;3.80;99.90;;;;;;5041395;28;20492;-59
2024/03/11 03:22:01;;;;;;;9.47;6.50;;;3.70;99.90;;;;;;5041030;28;20441;-60
2024/03/11 03:24:27;;;;;;;7.63;5.10;;;3.70;99.90;;;;;;5046869;28;20199;-60
2024/03/11 03:26:52;;;;;;;7.37;5.80;;;3.60;99.90;;;;;;5027874;28;20171;-60
2024/03/11 03:29:21;;;;;;;6.60;4.90;;;3.60;99.90;;;;;;5037036;28;20210;-60
2024/03/11 03:31:47;;;;;;;8.13;5.50;;;3.50;99.90;;;;;;5020476;28;20180;-60
2024/03/11 03:34:13;;;;;;;7.70;6.07;;;3.50;99.90;;;;;;5046967;28;20985;-60
2024/03/11 03:36:38;;;;;;;8.60;5.50;;;3.50;99.90;;;;;;5048740;28;20286;-60
2024/03/11 03:39:08;;;;;;;13.07;8.97;;;3.40;99.90;;;;;;5030971;28;20579;-60
2024/03/11 03:41:36;;;;;;;10.23;7.23;;;3.50;99.90;;;;;;5042583;28;20271;-60
2024/03/11 03:44:03;;;;;;;7.83;6.20;;;3.50;99.90;;;;;;5043019;28;20458;-60
2024/03/11 03:46:30;;;;;;;7.27;6.07;;;3.50;99.90;;;;;;5044210;28;20428;-60
2024/03/11 03:48:55;;;;;;;8.10;6.07;;;3.50;99.90;;;;;;5046837;28;20441;-60
2024/03/11 03:51:21;;;;;;;10.33;7.30;;;3.50;99.90;;;;;;5041673;28;20441;-60
2024/03/11 03:53:48;;;;;;;8.70;6.63;;;3.60;99.90;;;;;;5048843;28;20190;-60
2024/03/11 03:56:15;;;;;;;11.63;7.60;;;3.60;99.90;;;;;;5046424;28;20264;-61
2024/03/11 03:58:41;;;;;;;10.13;7.50;;;3.60;99.90;;;;;;5044155;28;20455;-60
2024/03/11 04:01:07;;;;;;;10.57;7.13;;;3.60;99.90;;;;;;5045507;28;20500;-60
2024/03/11 04:03:34;;;;;;;9.83;7.67;;;3.60;99.90;;;;;;5030753;28;20509;-60
2024/03/11 04:06:00;;;;;;;8.83;6.63;;;3.60;99.90;;;;;;5041841;28;20522;-60
2024/03/11 04:08:25;;;;;;;10.40;7.60;;;3.70;99.90;;;;;;5044668;28;20461;-59
2024/03/11 04:10:51;;;;;;;9.80;6.53;;;3.70;99.90;;;;;;5044362;28;20429;-59
2024/03/11 04:13:17;;;;;;;7.37;5.67;;;3.70;99.90;;;;;;5027827;28;20229;-59
2024/03/11 04:15:43;;;;;;;10.00;6.60;;;3.70;99.90;;;;;;5048895;28;20539;-60
2024/03/11 04:18:13;;;;;;;9.30;6.10;;;3.70;99.90;;;;;;5040798;28;20448;-60
2024/03/11 04:20:39;;;;;;;8.73;6.10;;;3.70;99.90;;;;;;5046217;28;21038;-60
2024/03/11 04:23:07;;;;;;;6.90;5.70;;;3.70;99.90;;;;;;5040987;28;20916;-60
2024/03/11 04:25:37;;;;;;;7.93;5.47;;;3.70;99.90;;;;;;5024400;28;20471;-61
2024/03/11 04:28:04;;;;;;;6.50;5.70;;;3.70;99.90;;;;;;5047101;28;21201;-59
2024/03/11 04:30:31;;;;;;;6.73;5.60;;;3.70;99.90;;;;;;5045226;28;20437;-60
2024/03/11 04:32:58;;;;;;;7.90;6.27;;;3.70;99.90;;;;;;5047344;28;20504;-60
2024/03/11 04:35:29;;;;;;;7.87;5.97;;;3.80;99.90;;;;;;5044244;28;20441;-60
2024/03/11 04:38:06;;;;;;;6.90;5.90;;;3.80;99.90;;;;;;5044474;28;20496;-60
2024/03/11 04:40:33;;;;;;;9.00;6.17;;;3.80;99.90;;;;;;5048590;28;20487;-61
2024/03/11 04:42:59;;;;;;;11.03;6.90;;;3.80;99.90;;;;;;5046179;28;20524;-60
2024/03/11 04:45:26;;;;;;;11.03;7.40;;;3.80;99.90;;;;;;5046359;28;20510;-60
2024/03/11 04:47:57;;;;;;;11.67;7.77;;;3.80;99.90;;;;;;5046884;28;20413;-61
2024/03/11 04:50:26;;;;;;;10.30;6.80;;;3.80;99.90;;;;;;5044375;28;20434;-59
2024/03/11 04:53:05;;;;;;;13.30;7.83;;;3.80;99.90;;;;;;5045225;28;20410;-59
2024/03/11 04:55:32;;;;;;;12.07;6.83;;;3.80;99.90;;;;;;5048875;28;20831;-60
2024/03/11 04:57:58;;;;;;;10.20;7.00;;;3.70;99.90;;;;;;5042020;28;20544;-60
2024/03/11 05:00:28;;;;;;;11.50;6.93;;;3.70;99.90;;;;;;5037488;28;20445;-60
2024/03/11 05:02:55;;;;;;;11.90;6.27;;;3.70;99.90;;;;;;5042747;28;20431;-58
2024/03/11 05:05:21;;;;;;;11.13;6.10;;;3.70;99.90;;;;;;5038228;28;20488;-57
2024/03/11 05:07:46;;;;;;;10.40;6.77;;;3.60;99.90;;;;;;5020424;28;20805;-56
2024/03/11 05:10:12;;;;;;;12.40;6.33;;;3.60;99.90;;;;;;5045799;28;20203;-61
2024/03/11 05:12:38;;;;;;;11.40;6.37;;;3.50;99.90;;;;;;5043246;28;20203;-60
2024/03/11 05:15:09;;;;;;;13.60;6.10;;;3.50;99.90;;;;;;5026103;28;20592;-59
2024/03/11 05:17:35;;;;;;;13.23;6.40;;;3.50;99.90;;;;;;5039490;28;20723;-60
2024/03/11 05:20:06;;;;;;;6.60;5.27;;;3.50;99.90;;;;;;5034655;28;20449;-60
2024/03/11 05:22:32;;;;;;;7.83;5.73;;;3.50;99.90;;;;;;5039663;28;20943;-61
2024/03/11 05:24:58;;;;;;;10.37;6.10;;;3.50;99.90;;;;;;5043406;28;20461;-60
2024/03/11 05:27:24;;;;;;;8.10;5.73;;;3.40;99.90;;;;;;5020209;28;20456;-60
2024/03/11 05:29:49;;;;;;;8.13;5.63;;;3.40;99.90;;;;;;5043488;28;20578;-61
2024/03/11 05:32:15;;;;;;;6.50;5.03;;;3.40;99.90;;;;;;5041749;28;20862;-60
2024/03/11 05:34:41;;;;;;;7.60;5.57;;;3.40;99.90;;;;;;5041323;28;20191;-60
2024/03/11 05:37:07;;;;;;;8.17;5.57;;;3.40;99.90;;;;;;5037978;28;21731;-61
2024/03/11 05:39:34;;;;;;;7.87;5.50;;;3.40;99.90;;;;;;5038520;28;20546;-61
2024/03/11 05:41:59;;;;;;;12.30;5.90;;;3.40;99.90;;;;;;5040177;28;20179;-61
2024/03/11 05:44:25;;;;;;;8.67;5.80;;;3.40;99.90;;;;;;5043542;28;20540;-61
2024/03/11 05:46:51;;;;;;;8.27;5.83;;;3.30;99.90;;;;;;5040943;28;20448;-60
2024/03/11 05:49:16;;;;;;;9.20;5.63;;;3.30;99.90;;;;;;5035079;28;20211;-61
2024/03/11 05:51:42;;;;;;;10.43;6.13;;;3.30;99.90;;;;;;5026688;28;20266;-60
2024/03/11 05:54:17;;;;;;;9.50;5.53;;;3.30;99.90;;;;;;5026759;28;20270;-60
2024/03/11 05:56:53;;;;;;;12.23;6.47;;;3.30;99.90;;;;;;5046788;28;20443;-60
2024/03/11 05:59:21;;;;;;;9.40;6.30;;;3.30;99.90;;;;;;5039111;28;20452;-60
2024/03/11 06:01:46;;;;;;;10.10;6.17;;;3.30;99.90;;;;;;5042608;28;20512;-60
2024/03/11 06:04:12;;;;;;;20.93;6.97;;;3.30;99.90;;;;;;5042040;28;21016;-60
2024/03/11 06:06:42;;;;;;;10.40;6.30;;;3.40;99.90;;;;;;5043133;28;20232;-63
2024/03/11 06:09:09;;;;;;;10.30;6.07;;;3.40;99.90;;;;;;5041484;28;20198;-64
2024/03/11 06:11:40;;;;;;;10.20;5.87;;;3.30;99.90;;;;;;5025609;28;20897;-63
2024/03/11 06:14:12;;;;;;;11.60;6.40;;;3.30;99.90;;;;;;5040209;28;20430;-64
2024/03/11 06:16:44;;;;;;;38.47;7.50;;;3.40;99.90;;;;;;5040230;28;21073;-63
2024/03/11 06:19:11;;;;;;;20.63;6.23;;;3.40;99.90;;;;;;5041356;28;20448;-63
2024/03/11 06:21:42;;;;;;;13.23;6.10;;;3.40;99.90;;;;;;5046123;28;20462;-65
2024/03/11 06:24:08;;;;;;;10.73;5.83;;;3.40;99.90;;;;;;5038621;28;20462;-64
2024/03/11 06:26:35;;;;;;;12.03;5.73;;;3.40;99.90;;;;;;5039819;28;20417;-63
2024/03/11 06:29:02;;;;;;;6.77;4.93;;;3.40;99.90;;;;;;5036137;28;20469;-63
2024/03/11 06:31:29;;;;;;;12.13;5.63;;;3.40;99.90;;;;;;5037977;28;20533;-64
2024/03/11 06:33:55;;;;;;;17.27;8.63;;;3.40;99.90;;;;;;5040195;28;20452;-64
2024/03/11 06:36:21;;;;;;;12.00;7.70;;;3.40;99.90;;;;;;5044458;28;20478;-64
2024/03/11 06:38:48;;;;;;;15.13;7.77;;;3.50;99.90;;;;;;5035107;28;20456;-64
2024/03/11 06:41:15;;;;;;;12.10;8.03;;;3.50;99.90;;;;;;5025916;28;20434;-61
2024/03/11 06:43:40;;;;;;;21.63;9.27;;;3.50;99.90;;;;;;5033430;28;20500;-61
2024/03/11 06:46:06;;;;;;;12.40;7.50;;;3.50;99.90;;;;;;5040409;28;20430;-62
2024/03/11 06:48:32;;;;;;;14.63;7.90;;;3.50;99.90;;;;;;5039704;28;20205;-63
2024/03/11 06:50:57;;;;;;;34.27;8.93;;;3.50;99.90;;;;;;5046207;28;20192;-63
2024/03/11 06:53:23;;;;;;;19.30;9.20;;;3.50;99.90;;;;;;5038469;28;20176;-62
2024/03/11 06:55:49;;;;;;;26.30;8.80;;;3.60;99.90;;;;;;5045760;28;20186;-62
2024/03/11 06:58:15;;;;;;;15.00;8.90;;;3.60;99.90;;;;;;5022870;28;20847;-62
2024/03/11 07:00:41;;;;;;;35.93;12.37;;;3.60;99.90;;;;;;5038466;28;20422;-61
2024/03/11 07:03:07;;;;;;;28.17;11.43;;;3.60;99.90;;;;;;5044540;28;20428;-62
2024/03/11 07:05:33;;;;;;;29.40;12.00;;;3.60;99.90;;;;;;5025318;28;20559;-62
2024/03/11 07:07:59;;;;;;;33.47;13.90;;;3.70;99.90;;;;;;5048373;28;20179;-62
2024/03/11 07:10:25;;;;;;;39.07;14.30;;;3.70;99.90;;;;;;5051474;28;20203;-60
2024/03/11 07:12:50;;;;;;;36.33;14.10;;;3.70;99.90;;;;;;5047224;28;20198;-61
2024/03/11 07:15:16;;;;;;;34.60;14.60;;;3.80;99.90;;;;;;5040255;28;20505;-61
2024/03/11 07:17:42;;;;;;;36.13;14.23;;;3.80;99.90;;;;;;5044346;28;20178;-61
2024/03/11 07:20:08;;;;;;;34.20;14.17;;;3.80;99.90;;;;;;5027365;28;20440;-61
2024/03/11 07:22:35;;;;;;;34.97;14.07;;;3.80;99.90;;;;;;5047487;28;20501;-60
2024/03/11 07:25:02;;;;;;;30.90;13.93;;;3.80;99.90;;;;;;5050515;28;20967;-61
2024/03/11 07:27:28;;;;;;;31.53;14.10;;;3.90;99.90;;;;;;5047238;28;21010;-59
2024/03/11 07:29:56;;;;;;;32.50;13.83;;;3.90;99.90;;;;;;5043133;28;20437;-60
2024/03/11 07:32:23;;;;;;;28.03;13.83;;;3.90;99.90;;;;;;5051558;28;20422;-60
2024/03/11 07:34:50;;;;;;;30.67;14.30;;;3.90;99.90;;;;;;5048381;28;20483;-60
2024/03/11 07:37:16;;;;;;;30.90;13.37;;;4.00;99.90;;;;;;5043990;28;20764;-60
2024/03/11 07:39:41;;;;;;;28.37;12.90;;;4.00;99.90;;;;;;5049264;28;20443;-60
2024/03/11 07:42:07;;;;;;;43.77;17.20;;;4.00;99.90;;;;;;5045739;28;20187;-62
2024/03/11 07:44:33;;;;;;;46.80;17.73;;;4.10;99.90;;;;;;5050051;28;20547;-62
2024/03/11 07:47:00;;;;;;;33.17;15.13;;;4.10;99.90;;;;;;5041498;28;20225;-62
2024/03/11 07:49:29;;;;;;;34.80;15.70;;;4.10;99.90;;;;;;5046184;28;20457;-61
2024/03/11 07:51:57;;;;;;;39.60;15.70;;;4.10;99.90;;;;;;5051040;28;20427;-61
2024/03/11 07:54:22;;;;;;;36.97;14.50;;;4.20;99.90;;;;;;5049383;28;20424;-62
2024/03/11 07:56:48;;;;;;;39.40;16.13;;;4.20;99.90;;;;;;5045400;28;20529;-62
2024/03/11 07:59:16;;;;;;;40.17;16.67;;;4.20;99.90;;;;;;5046049;28;20489;-62
2024/03/11 08:01:42;;;;;;;36.93;14.30;;;4.30;99.90;;;;;;5043456;28;20183;-62
2024/03/11 08:04:09;;;;;;;47.37;17.40;;;4.30;99.90;;;;;;5037782;28;20484;-61
2024/03/11 08:06:35;;;;;;;41.57;15.23;;;4.40;99.90;;;;;;5042582;28;20187;-61
2024/03/11 08:09:01;;;;;;;31.77;15.03;;;4.40;99.90;;;;;;5030585;28;21126;-60
2024/03/11 08:11:26;;;;;;;42.37;16.47;;;4.40;99.90;;;;;;5027899;28;20194;-61
2024/03/11 08:13:52;;;;;;;39.70;16.40;;;4.50;99.90;;;;;;5030469;28;20183;-61
2024/03/11 08:16:17;;;;;;;33.83;14.23;;;4.60;99.90;;;;;;5048052;28;20180;-61
2024/03/11 08:18:43;;;;;;;34.63;14.87;;;4.60;99.90;;;;;;5045835;28;20199;-62
2024/03/11 08:21:11;;;;;;;27.73;14.63;;;4.60;99.90;;;;;;5049532;28;20269;-61
2024/03/11 08:23:43;;;;;;;24.00;12.30;;;4.60;99.90;;;;;;5046693;28;20532;-62
2024/03/11 08:26:09;;;;;;;32.17;15.07;;;4.70;99.90;;;;;;5045217;28;20430;-62
2024/03/11 08:28:38;;;;;;;28.97;13.77;;;4.70;99.90;;;;;;5046069;28;20452;-61
2024/03/11 08:31:07;;;;;;;29.57;13.20;;;4.70;99.90;;;;;;5028689;28;20270;-62
2024/03/11 08:33:36;;;;;;;27.93;14.10;;;4.70;99.90;;;;;;5046535;28;20461;-61
2024/03/11 08:36:05;;;;;;;28.33;13.37;;;4.70;99.90;;;;;;5044105;28;20502;-62
2024/03/11 08:38:32;;;;;;;29.70;15.10;;;4.70;99.90;;;;;;5041668;28;20468;-62
2024/03/11 08:40:58;;;;;;;29.73;12.73;;;4.80;99.90;;;;;;5049221;28;20414;-62
2024/03/11 08:43:25;;;;;;;18.27;10.30;;;4.90;99.90;;;;;;5029162;28;20413;-62
2024/03/11 08:45:51;;;;;;;12.70;7.07;;;5.00;99.90;;;;;;5047624;28;20473;-62
2024/03/11 08:48:17;;;;;;;8.47;5.77;;;5.10;99.90;;;;;;5043565;28;20433;-62
2024/03/11 08:50:43;;;;;;;9.20;5.70;;;5.20;99.90;;;;;;5028786;28;20229;-61
2024/03/11 08:53:08;;;;;;;7.37;5.70;;;5.40;99.90;;;;;;5047966;28;20206;-62
2024/03/11 08:55:34;;;;;;;7.13;4.83;;;5.50;99.90;;;;;;5046145;28;20190;-62
2024/03/11 08:58:06;;;;;;;7.90;5.70;;;5.70;99.90;;;;;;5046600;28;20187;-62
2024/03/11 09:00:36;;;;;;;8.00;5.57;;;5.80;99.90;;;;;;5042464;28;20442;-62
2024/03/11 09:03:03;;;;;;;11.83;6.80;;;5.80;99.90;;;;;;5036886;28;20507;-62
2024/03/11 09:05:28;;;;;;;8.17;6.20;;;5.90;99.90;;;;;;5048960;28;20469;-63
2024/03/11 09:07:56;;;;;;;6.50;5.47;;;6.00;99.90;;;;;;5043686;28;20445;-61
2024/03/11 09:10:22;;;;;;;9.80;5.30;;;6.10;99.90;;;;;;5045987;28;20178;-62
2024/03/11 09:12:49;;;;;;;6.80;5.60;;;6.20;99.90;;;;;;5039903;28;20795;-62
2024/03/11 09:15:23;;;;;;;8.30;6.20;;;6.20;99.90;;;;;;5044542;28;20425;-62
2024/03/11 09:17:50;;;;;;;9.40;5.60;;;6.30;99.90;;;;;;5019331;28;20902;-63
2024/03/11 09:20:18;;;;;;;7.57;5.17;;;6.40;99.90;;;;;;5044759;28;20522;-62
2024/03/11 09:22:45;;;;;;;9.50;6.37;;;6.50;99.90;;;;;;5039678;28;20553;-62
2024/03/11 09:25:17;;;;;;;10.10;5.50;;;6.50;99.90;;;;;;5048453;28;22430;-62
2024/03/11 09:27:44;;;;;;;8.00;6.10;;;6.60;99.90;;;;;;5043182;28;20526;-62
2024/03/11 09:30:11;;;;;;;7.20;5.60;;;6.70;99.90;;;;;;5045654;28;20465;-62
2024/03/11 09:32:37;;;;;;;7.70;5.97;;;6.90;99.90;;;;;;5047974;28;20417;-62
2024/03/11 09:35:05;;;;;;;9.73;5.40;;;7.10;99.90;;;;;;5030908;28;20930;-61
2024/03/11 09:37:31;;;;;;;8.23;5.77;;;7.20;99.90;;;;;;5044545;28;20274;-62
2024/03/11 09:39:57;;;;;;;6.80;4.77;;;7.30;99.90;;;;;;5031410;28;20471;-61
2024/03/11 09:42:24;;;;;;;6.20;4.77;;;7.30;99.90;;;;;;5048606;28;20432;-61
2024/03/11 09:44:54;;;;;;;7.20;5.17;;;7.20;99.90;;;;;;5046994;28;20195;-61
2024/03/11 09:47:20;;;;;;;7.00;5.63;;;7.10;99.90;;;;;;5044549;28;20433;-61
2024/03/11 09:49:47;;;;;;;6.70;5.30;;;6.90;99.90;;;;;;5028389;28;20491;-61
2024/03/11 09:52:13;;;;;;;7.87;5.17;;;6.90;99.90;;;;;;5047319;28;20171;-61
2024/03/11 09:54:40;;;;;;;7.93;4.80;;;6.90;99.90;;;;;;5027585;28;20850;-62
2024/03/11 09:57:06;;;;;;;6.50;4.90;;;7.00;99.90;;;;;;5034731;28;20442;-62
2024/03/11 09:59:37;;;;;;;6.80;4.30;;;7.10;99.90;;;;;;5045548;28;20494;-61
2024/03/11 10:02:06;;;;;;;6.17;4.70;;;7.10;99.90;;;;;;5026058;28;20537;-61
2024/03/11 10:04:32;;;;;;;7.03;4.83;;;7.10;99.90;;;;;;5039727;28;20485;-62
2024/03/11 10:07:04;;;;;;;9.60;4.60;;;7.20;99.90;;;;;;5037766;28;20458;-62
2024/03/11 10:09:31;;;;;;;5.77;4.70;;;7.20;99.90;;;;;;5046373;28;20635;-62
2024/03/11 10:12:15;;;;;;;7.00;5.07;;;7.30;99.90;;;;;;5043764;28;20452;-61
2024/03/11 10:14:43;;;;;;;7.73;4.60;;;7.40;99.90;;;;;;5038912;28;20809;-62
2024/03/11 10:17:16;;;;;;;6.10;4.63;;;7.40;99.90;;;;;;5028773;28;20994;-61
2024/03/11 10:19:56;;;;;;;5.53;4.10;;;7.50;99.90;;;;;;5045273;28;20452;-61
2024/03/11 10:22:23;;;;;;;5.53;4.47;;;7.50;99.90;;;;;;5042663;28;20797;-62
2024/03/11 10:24:52;;;;;;;5.40;4.50;;;7.50;99.90;;;;;;5048041;28;20468;-62
2024/03/11 10:27:22;;;;;;;5.57;4.17;;;7.60;99.90;;;;;;5045183;28;20430;-62
2024/03/11 10:29:49;;;;;;;6.70;4.80;;;7.60;99.90;;;;;;5044430;28;20433;-61
2024/03/11 10:32:36;;;;;;;8.17;5.47;;;7.50;99.90;;;;;;5048695;28;20446;-61
2024/03/11 10:35:02;;;;;;;5.50;4.43;;;7.60;99.90;;;;;;5041062;28;20500;-61
2024/03/11 10:37:29;;;;;;;4.67;3.97;;;7.60;99.90;;;;;;5030282;28;20865;-60
2024/03/11 10:40:00;;;;;;;4.60;4.00;;;7.60;99.90;;;;;;5023757;28;20491;-61
2024/03/11 10:42:28;;;;;;;5.63;4.00;;;7.70;99.90;;;;;;5038653;28;20985;-61
2024/03/11 10:44:57;;;;;;;6.60;4.33;;;7.80;99.90;;;;;;5041657;28;20865;-61
2024/03/11 10:47:23;;;;;;;6.87;4.40;;;7.90;99.90;;;;;;5045965;28;20471;-62
2024/03/11 10:49:50;;;;;;;6.33;4.00;;;8.00;99.90;;;;;;5018708;28;20454;-61
2024/03/11 10:52:21;;;;;;;7.27;4.50;;;8.20;99.90;;;;;;5038133;28;20424;-61
2024/03/11 10:54:50;;;;;;;10.23;4.97;;;8.40;99.90;;;;;;5030635;28;20422;-61
2024/03/11 10:57:26;;;;;;;7.90;4.77;;;8.40;99.90;;;;;;5041258;28;20422;-62
2024/03/11 10:59:53;;;;;;;5.13;3.83;;;8.40;99.90;;;;;;5040521;28;20425;-61
2024/03/11 11:02:24;;;;;;;7.37;4.30;;;8.40;99.90;;;;;;5041386;28;21341;-61
2024/03/11 11:04:53;;;;;;;9.23;4.07;;;8.30;99.90;;;;;;5037361;28;20479;-61
2024/03/11 11:07:30;;;;;;;5.03;3.90;;;8.30;99.90;;;;;;5041413;28;20419;-60
2024/03/11 11:10:01;;;;;;;8.07;4.17;;;8.30;99.90;;;;;;5041431;28;22289;-61
2024/03/11 11:12:29;;;;;;;5.13;3.57;;;8.30;99.90;;;;;;5031004;28;20453;-61
2024/03/11 11:15:07;;;;;;;4.47;3.60;;;8.30;99.90;;;;;;5042248;28;20791;-61
2024/03/11 11:17:37;;;;;;;3.50;3.17;;;8.40;99.90;;;;;;5033578;28;20491;-62
2024/03/11 11:23:05;;;;;;;5.43;3.07;;;8.50;99.90;;;;;;4993160;28;20437;-60
2024/03/11 11:25:40;;;;;;;3.67;3.00;;;8.60;99.90;;;;;;5038679;28;20499;-62
2024/03/11 11:28:15;;;;;;;4.27;2.87;;;8.60;99.90;;;;;;5032454;28;20531;-62
2024/03/11 11:30:44;;;;;;;4.50;3.10;;;8.80;99.90;;;;;;5040456;28;20417;-62
2024/03/11 11:33:11;;;;;;;4.10;3.10;;;9.10;99.90;;;;;;5036442;28;20414;-61
2024/03/11 11:35:41;;;;;;;6.43;2.70;;;9.40;99.90;;;;;;5030810;28;20519;-60
2024/03/11 11:38:25;;;;;;;3.07;2.77;;;9.80;99.90;;;;;;5034471;28;20501;-62
2024/03/11 11:40:53;;;;;;;3.57;2.70;;;10.20;99.90;;;;;;5034813;28;20430;-61
2024/03/11 11:43:24;;;;;;;3.07;2.30;;;10.60;98.00;;;;;;5035980;28;20466;-61
2024/03/11 11:45:55;;;;;;;2.50;2.23;;;11.00;89.40;;;;;;5034381;28;20461;-61
2024/03/11 11:48:26;;;;;;;2.17;1.97;;;11.40;75.30;;;;;;5022612;28;20445;-61
2024/03/11 11:50:57;;;;;;;19.57;3.03;;;11.80;74.00;;;;;;5040624;28;20419;-62
2024/03/11 11:53:32;;;;;;;2.43;2.23;;;12.10;71.20;;;;;;5032536;28;20398;-61
2024/03/11 11:55:58;;;;;;;2.50;2.00;;;12.30;67.20;;;;;;5041232;28;20963;-62
2024/03/11 11:58:25;;;;;;;2.40;2.10;;;12.50;67.20;;;;;;5042210;28;20434;-62
2024/03/11 12:01:02;;;;;;;2.10;2.00;;;12.50;65.10;;;;;;5044497;28;20985;-61
2024/03/11 12:03:32;;;;;;;2.13;2.03;;;12.50;66.00;;;;;;5027689;28;20433;-61
2024/03/11 12:06:17;;;;;;;1.80;1.70;;;12.50;66.90;;;;;;5021875;28;21228;-62
2024/03/11 12:08:47;;;;;;;2.10;1.90;;;12.60;67.80;;;;;;5040567;28;20438;-62
2024/03/11 12:11:19;;;;;;;2.10;1.77;;;12.60;66.80;;;;;;5041126;28;20421;-61
2024/03/11 12:13:46;;;;;;;1.53;1.43;;;12.30;62.70;;;;;;5038227;28;20799;-62
2024/03/11 12:16:30;;;;;;;1.80;1.53;;;12.00;63.50;;;;;;5038942;28;20422;-61
2024/03/11 12:19:05;;;;;;;2.97;2.00;;;12.00;63.80;;;;;;5038868;28;20489;-62
2024/03/11 12:21:33;;;;;;;7.90;2.23;;;12.10;68.40;;;;;;5034171;28;21107;-61
2024/03/11 12:24:00;;;;;;;2.13;1.70;;;12.30;65.70;;;;;;5028483;28;20479;-62
2024/03/11 12:26:27;;;;;;;1.90;1.80;;;12.40;61.90;;;;;;5042643;28;20434;-62
2024/03/11 12:29:07;;;;;;;7.00;2.43;;;12.80;63.90;;;;;;5042471;28;20461;-63
2024/03/11 12:31:34;;;;;;;2.17;1.80;;;12.90;58.40;;;;;;5039329;28;20418;-62
2024/03/11 12:34:10;;;;;;;3.30;1.70;;;12.90;58.00;;;;;;5043325;28;20818;-61
2024/03/11 12:36:49;;;;;;;2.23;1.80;;;12.70;58.40;;;;;;5020740;28;20972;-61
2024/03/11 12:39:20;;;;;;;2.87;1.80;;;12.50;58.70;;;;;;5041643;28;20436;-61
2024/03/11 12:41:47;;;;;;;2.00;1.60;;;12.30;58.20;;;;;;5045162;28;20502;-62
2024/03/11 12:44:16;;;;;;;1.70;1.60;;;12.50;59.10;;;;;;5039234;28;20552;-62
2024/03/11 12:46:43;;;;;;;1.60;1.50;;;12.60;59.50;;;;;;5044214;28;20423;-62
2024/03/11 12:49:12;;;;;;;2.30;1.73;;;12.60;59.60;;;;;;5044613;28;20442;-61
2024/03/11 12:51:41;;;;;;;3.20;1.70;;;12.40;59.10;;;;;;5039554;28;20434;-60
2024/03/11 12:54:24;;;;;;;2.40;1.70;;;12.30;60.00;;;;;;5045365;28;20410;-60
2024/03/11 12:57:28;;;;;;;2.17;1.73;;;12.50;60.90;;;;;;5045453;28;21006;-62